Oriana — ZCDU9 — position and weather

sailwx.info

Track history (hours):
 
Tides and Currents Weather Stations Pressure Air Temp Water Temp Dewpoint Dewpoint Depression Visibility Wind Speed Wind Dir Waves Ship Positions

Oriana (Bermuda)

Last reported at 2019-Feb-23 08:07 UTC. Time now 2019-Feb-23 23:54 UTC.
Position N 49°05' W 006°48'.

Length 261 m; beam 32.2 m; draft 8.2 m.

Type: Ship. MMSI: 310529000.

Date/timePositionNaut miles runAvg speedWind from/ knotsBaromVisibWave heightAir tempDewpointWater temp
2019-Feb-23 08:07N 49°05' W 006°48'518.7
2019-Feb-23 07:50N 49°07' W 006°41'718.4
2019-Feb-23 07:28N 49°10' W 006°31'918.8
2019-Feb-23 07:00N 49°12' W 006°18'366.4 170 / 331025.510.8 12.0 9.410.0
2019-Feb-23 06:57N 49°15' W 006°19'818.4
2019-Feb-23 06:30N 49°18' W 006°07'2418.4
2019-Feb-23 05:13N 49°28' W 005°34'418.7
2019-Feb-23 05:00N 49°30' W 005°30'1519.5
2019-Feb-23 04:16N 49°36' W 005°09'520.1
2019-Feb-23 04:00N 49°38' W 005°02'1020.5
2019-Feb-23 03:30N 49°41' W 004°46'1321.3
2019-Feb-23 02:54N 49°44' W 004°27'922.0
2019-Feb-23 02:30N 49°47' W 004°14'1122.2
2019-Feb-23 02:00N 49°50' W 003°58'1122.2
2019-Feb-23 01:30N 49°52' W 003°41'1121.8
2019-Feb-23 01:00N 49°56' W 003°25'1121.1
2019-Feb-23 00:30N 49°58' W 003°09'1020.3
2019-Feb-23 00:00N 50°01' W 002°54'1019.0
2019-Feb-22 23:30N 50°04' W 002°40'918.0
2019-Feb-22 23:00N 50°06' W 002°26'816.9
2019-Feb-22 22:30N 50°09' W 002°14'816.1
2019-Feb-22 22:00N 50°13' W 002°03'816.2
2019-Feb-22 21:30N 50°16' W 001°51'816.5
2019-Feb-22 21:00N 50°19' W 001°39'917.4
2019-Feb-22 20:30N 50°22' W 001°27'918.5
2019-Feb-22 20:00N 50°27' W 001°14'4242.6
2019-Feb-22 20:00N 50°24' W 001°18'1327.8 100 / 121039.1 6.0 6.0 8.0
2019-Feb-22 19:30N 50°33' W 001°02'918.5
2019-Feb-22 19:00N 50°42' W 000°58'714.7
2019-Feb-22 18:30N 50°46' W 001°08'713.8
2019-Feb-22 18:00N 50°48' W 001°18'5 9.8
2019-Feb-22 17:30N 50°52' W 001°22'3 6.5
2019-Feb-22 17:00N 50°54' W 001°26'0 0.0
2019-Feb-22 16:29N 50°54' W 001°26'0 0.0
2019-Feb-22 15:58N 50°54' W 001°26'0 0.0
2019-Feb-22 15:28N 50°54' W 001°26'0 0.0
2019-Feb-22 15:01N 50°54' W 001°26'0 0.0
2019-Feb-22 14:31N 50°54' W 001°26'0 0.0
2019-Feb-22 13:58N 50°54' W 001°26'0 0.0
2019-Feb-22 13:28N 50°54' W 001°26'0 0.0
2019-Feb-22 12:55N 50°54' W 001°26'0 0.0
2019-Feb-22 12:31N 50°54' W 001°26'0 0.0
2019-Feb-22 11:58N 50°54' W 001°26'0 0.0
2019-Feb-22 11:31N 50°54' W 001°26'0 0.0
2019-Feb-22 11:01N 50°54' W 001°26'0 0.0
2019-Feb-22 10:27N 50°54' W 001°26'0 0.0
2019-Feb-22 10:01N 50°54' W 001°26'0 0.0
2019-Feb-22 09:28N 50°54' W 001°26'0 0.0
2019-Feb-22 08:57N 50°54' W 001°26'0 0.0
2019-Feb-22 08:25N 50°54' W 001°26'0 0.0
2019-Feb-22 07:58N 50°54' W 001°26'0 0.0
2019-Feb-22 07:28N 50°54' W 001°26'0 0.0
2019-Feb-22 06:59N 50°54' W 001°26'0 0.3
2019-Feb-22 06:30N 50°54' W 001°26'1 1.1
2019-Feb-22 06:00N 50°54' W 001°25'4 8.4
2019-Feb-22 05:31N 50°51' W 001°20'4 8.4
2019-Feb-22 05:01N 50°47' W 001°19'714.5
2019-Feb-22 04:30N 50°45' W 001°08'815.1
2019-Feb-22 04:00N 50°42' W 000°58'510.9
2019-Feb-22 03:31N 50°38' W 000°51'612.6
2019-Feb-22 03:00N 50°37' W 000°41'612.7
2019-Feb-22 02:31N 50°35' W 000°32'816.6
2019-Feb-22 02:00N 50°33' W 000°19'816.8
2019-Feb-22 01:30N 50°32' W 000°06'916.2
2019-Feb-22 00:58N 50°34' E 000°08'715.6
2019-Feb-22 00:30N 50°36' E 000°19'715.1
2019-Feb-22 00:00N 50°38' E 000°30'714.7
2019-Feb-21 23:30N 50°40' E 000°41'714.8
2019-Feb-21 23:00N 50°45' E 000°51'815.3
2019-Feb-21 22:30N 50°49' E 001°01'816.5
2019-Feb-21 22:00N 50°53' E 001°12'918.2
2019-Feb-21 21:30N 50°59' E 001°23'1019.7
2019-Feb-21 21:00N 51°06' E 001°34'1019.3
2019-Feb-21 20:30N 51°13' E 001°44'1019.8
2019-Feb-21 20:00N 51°22' E 001°50'918.3
2019-Feb-21 19:30N 51°30' E 001°58'917.5
2019-Feb-21 19:00N 51°37' E 002°07'917.1
2019-Feb-21 18:30N 51°43' E 002°16'816.6
2019-Feb-21 18:00N 51°50' E 002°24'714.7
2019-Feb-21 17:30N 51°54' E 002°33'815.6
2019-Feb-21 17:00N 52°02' E 002°37'815.6
2019-Feb-21 16:30N 52°10' E 002°38'815.4
2019-Feb-21 15:57N 52°18' E 002°41'815.4
2019-Feb-21 15:26N 52°26' E 002°41'815.7
2019-Feb-21 14:55N 52°34' E 002°40'716.0
2019-Feb-21 14:30N 52°41' E 002°39'816.4
2019-Feb-21 14:00N 52°49' E 002°39'1616.9
2019-Feb-21 13:02N 53°05' E 002°38'117.6
2019-Feb-21 12:58N 53°06' E 002°39'1217.7
2019-Feb-21 12:16N 53°18' E 002°46'24618.4
2019-Feb-20 22:52N 57°17' E 004°32'818.4
2019-Feb-20 22:26N 57°25' E 004°35'818.3
2019-Feb-20 22:00N 57°32' E 004°39'918.3
2019-Feb-20 21:30N 57°41' E 004°43'918.4
2019-Feb-20 20:59N 57°50' E 004°47'918.3
2019-Feb-20 20:30N 57°59' E 004°50'918.2
2019-Feb-20 20:00N 58°08' E 004°53'918.0
2019-Feb-20 19:30N 58°17' E 004°57'917.9
2019-Feb-20 19:00N 58°25' E 005°01'918.5
2019-Feb-20 18:30N 58°34' E 005°07'918.2
2019-Feb-20 18:00N 58°42' E 005°15'917.0
2019-Feb-20 17:30N 58°49' E 005°24'713.9
2019-Feb-20 17:00N 58°55' E 005°32'815.3
2019-Feb-20 16:30N 59°02' E 005°33'611.8
2019-Feb-20 15:59N 58°59' E 005°43'1 1.5
2019-Feb-20 15:30N 58°59' E 005°44'0 0.0
2019-Feb-20 14:57N 58°59' E 005°44'0 0.0
2019-Feb-20 14:30N 58°59' E 005°44'0 0.0
2019-Feb-20 14:00N 58°59' E 005°44'0 0.0
2019-Feb-20 13:30N 58°59' E 005°44'0 0.0
2019-Feb-20 13:00N 58°59' E 005°44'0 0.0
2019-Feb-20 12:30N 58°59' E 005°44'0 0.0
2019-Feb-20 12:00N 58°59' E 005°44'0 0.0
2019-Feb-20 11:30N 58°59' E 005°44'0 0.0
2019-Feb-20 11:00N 58°59' E 005°44'0 0.0
2019-Feb-20 10:30N 58°59' E 005°44'0 0.0
2019-Feb-20 10:00N 58°59' E 005°44'0 0.0
2019-Feb-20 09:30N 58°59' E 005°44'0 0.0
2019-Feb-20 09:00N 58°59' E 005°44'0 0.0
2019-Feb-20 08:30N 58°59' E 005°44'0 0.0
2019-Feb-20 08:00N 58°59' E 005°44'0 0.0
2019-Feb-20 07:30N 58°59' E 005°44'0 0.9
2019-Feb-20 07:00N 58°59' E 005°43'510.1
2019-Feb-20 06:30N 59°02' E 005°36'713.5
2019-Feb-20 06:01N 59°06' E 005°26'815.3
2019-Feb-20 05:31N 59°02' E 005°13'816.3
2019-Feb-20 05:00N 59°07' E 005°01'917.7
2019-Feb-20 04:30N 59°14' E 004°50'917.3
2019-Feb-20 04:00N 59°22' E 004°43'1817.4
2019-Feb-20 03:00N 59°39' E 004°34'917.3
2019-Feb-20 02:30N 59°48' E 004°32'919.0
2019-Feb-20 02:00N 59°57' E 004°29'1019.3
2019-Feb-20 01:30N 60°07' E 004°27'919.3
2019-Feb-20 01:00N 60°16' E 004°26'1019.2
2019-Feb-20 00:30N 60°26' E 004°24'918.7
2019-Feb-20 00:00N 60°35' E 004°22'918.8
2019-Feb-19 23:30N 60°44' E 004°21'918.6
2019-Feb-19 23:00N 60°54' E 004°17'918.4
2019-Feb-19 22:30N 61°03' E 004°16'918.5
2019-Feb-19 22:00N 61°12' E 004°16'917.7
2019-Feb-19 21:29N 61°21' E 004°18'816.6
2019-Feb-19 21:00N 61°29' E 004°19'817.0
2019-Feb-19 20:30N 61°37' E 004°20'816.8
2019-Feb-19 20:00N 61°46' E 004°23'917.1
2019-Feb-19 19:30N 61°54' E 004°28'817.0
2019-Feb-19 19:00N 62°02' E 004°33'916.9
2019-Feb-19 18:30N 62°10' E 004°42'917.3
2019-Feb-19 18:00N 62°17' E 004°50'917.9
2019-Feb-19 17:30N 62°25' E 004°58'917.9
2019-Feb-19 17:00N 62°34' E 005°02'917.9
2019-Feb-19 16:30N 62°41' E 005°16'918.5
2019-Feb-19 16:00N 62°49' E 005°25'918.4
2019-Feb-19 15:30N 62°57' E 005°33'918.0
2019-Feb-19 15:00N 63°05' E 005°42'917.9
2019-Feb-19 14:29N 63°14' E 005°50'918.0
2019-Feb-19 14:00N 63°22' E 005°58'918.4
2019-Feb-19 13:30N 63°30' E 006°07'918.4
2019-Feb-19 13:00N 63°38' E 006°16'918.1
2019-Feb-19 12:30N 63°46' E 006°24'918.4
2019-Feb-19 12:00N 63°55' E 006°33'1019.4
2019-Feb-19 11:30N 64°04' E 006°43'1019.4
2019-Feb-19 11:00N 64°12' E 006°53'1019.2
2019-Feb-19 10:30N 64°21' E 007°03'1019.2
2019-Feb-19 10:00N 64°30' E 007°13'919.2
2019-Feb-19 09:30N 64°38' E 007°23'1019.0
2019-Feb-19 09:00N 64°46' E 007°34'1018.8
2019-Feb-19 08:29N 64°55' E 007°44'2518.5
2019-Feb-19 07:08N 65°17' E 008°11'1118.3
2019-Feb-19 06:33N 65°27' E 008°23'4718.3
2019-Feb-19 03:58N 66°08' E 009°16'918.2
2019-Feb-19 03:30N 66°16' E 009°26'918.1
2019-Feb-19 03:00N 66°24' E 009°36'918.3
2019-Feb-19 02:30N 66°32' E 009°47'918.6
2019-Feb-19 02:00N 66°40' E 009°58'1018.5
2019-Feb-19 01:29N 66°49' E 010°08'918.8
2019-Feb-19 01:00N 66°57' E 010°19'918.2
2019-Feb-19 00:30N 67°05' E 010°30'918.6
2019-Feb-19 00:00N 67°13' E 010°41'918.6
2019-Feb-18 23:30N 67°22' E 010°52'1018.7
2019-Feb-18 23:00N 67°30' E 011°03'918.6
2019-Feb-18 22:30N 67°38' E 011°16'918.5
2019-Feb-18 22:00N 67°45' E 011°31'918.9
2019-Feb-18 21:30N 67°53' E 011°45'919.3
2019-Feb-18 21:00N 68°01' E 012°00'1018.9
2019-Feb-18 20:30N 68°08' E 012°15'916.9
2019-Feb-18 20:00N 68°15' E 012°29'816.7
2019-Feb-18 19:30N 68°22' E 012°43'917.0
2019-Feb-18 19:00N 68°28' E 012°57'816.4
2019-Feb-18 18:30N 68°35' E 013°11'817.0
2019-Feb-18 18:00N 68°42' E 013°25'817.0
2019-Feb-18 17:30N 68°48' E 013°39'917.2
2019-Feb-18 17:00N 68°55' E 013°53'917.7
2019-Feb-18 16:30N 69°02' E 014°08'917.7
2019-Feb-18 16:00N 69°09' E 014°23'817.5
2019-Feb-18 15:31N 69°16' E 014°39'917.6
2019-Feb-18 15:00N 69°22' E 014°59'917.9
2019-Feb-18 14:30N 69°28' E 015°17'918.1
2019-Feb-18 14:00N 69°33' E 015°38'817.4
2019-Feb-18 13:30N 69°39' E 015°56'918.4
2019-Feb-18 13:00N 69°45' E 016°16'917.4
2019-Feb-18 12:30N 69°51' E 016°35'918.1
2019-Feb-18 12:00N 69°56' E 016°56'918.4
2019-Feb-18 11:30N 70°02' E 017°17'918.8
2019-Feb-18 11:00N 70°09' E 017°36'918.9
2019-Feb-18 10:30N 70°14' E 017°58'918.8
2019-Feb-18 10:00N 70°17' E 018°25'917.8
2019-Feb-18 09:30N 70°20' E 018°50'917.7
2019-Feb-18 09:00N 70°23' E 019°15'7434.5
2019-Feb-18 09:00N 70°18' E 019°00'1631.9 080 / 271001.410.8 -0.2-0.2 4.0
2019-Feb-18 08:30N 70°25' E 019°41'918.3
2019-Feb-18 08:00N 70°28' E 020°07'815.6
2019-Feb-18 07:30N 70°22' E 020°21'1018.9
2019-Feb-18 07:00N 70°12' E 020°20'713.3
2019-Feb-18 06:30N 70°06' E 020°13'714.3
2019-Feb-18 06:00N 70°12' E 020°23'815.5
2019-Feb-18 05:30N 70°17' E 020°42'815.5
2019-Feb-18 05:00N 70°21' E 021°02'815.7
2019-Feb-18 04:30N 70°25' E 021°23'816.5
2019-Feb-18 04:00N 70°24' E 021°47'816.9
2019-Feb-18 03:30N 70°20' E 022°09'917.0
2019-Feb-18 03:00N 70°15' E 022°31'816.9
2019-Feb-18 02:30N 70°13' E 022°55'815.5
2019-Feb-18 02:00N 70°06' E 023°03'816.7
2019-Feb-18 01:30N 69°60' E 023°19'1 2.1
2019-Feb-18 01:00N 69°59' E 023°20'0 0.0
2019-Feb-18 00:30N 69°59' E 023°20'0 0.0
2019-Feb-18 00:00N 69°59' E 023°20'0 0.0
2019-Feb-17 23:30N 69°59' E 023°20'0 0.0
2019-Feb-17 23:00N 69°59' E 023°20'0 0.0
2019-Feb-17 22:30N 69°59' E 023°20'0 0.0
2019-Feb-17 22:00N 69°59' E 023°20'0 0.0
2019-Feb-17 21:30N 69°59' E 023°20'0 0.0
2019-Feb-17 21:00N 69°59' E 023°20'0 0.0
2019-Feb-17 20:30N 69°59' E 023°20'0 0.0
2019-Feb-17 20:00N 69°59' E 023°20'0 0.0
2019-Feb-17 19:30N 69°59' E 023°20'0 0.0
2019-Feb-17 19:00N 69°59' E 023°20'0 0.0
2019-Feb-17 18:30N 69°59' E 023°20'0 0.0
2019-Feb-17 18:00N 69°59' E 023°20'0 0.0
2019-Feb-17 17:30N 69°59' E 023°20'0 0.0
2019-Feb-17 17:00N 69°59' E 023°20'0 0.0
2019-Feb-17 16:30N 69°59' E 023°20'0 0.0
2019-Feb-17 16:00N 69°59' E 023°20'0 0.0
2019-Feb-17 15:30N 69°59' E 023°20'0 0.0
2019-Feb-17 15:00N 69°59' E 023°20'0 0.0
2019-Feb-17 14:30N 69°59' E 023°20'0 0.0
2019-Feb-17 14:00N 69°59' E 023°20'0 0.0
2019-Feb-17 13:30N 69°59' E 023°20'0 0.0
2019-Feb-17 13:00N 69°59' E 023°20'0 0.0
2019-Feb-17 12:30N 69°59' E 023°20'0 0.0
2019-Feb-17 12:00N 69°59' E 023°20'0 0.0
2019-Feb-17 11:30N 69°59' E 023°20'0 0.0
2019-Feb-17 11:00N 69°59' E 023°20'0 0.0
2019-Feb-17 10:30N 69°59' E 023°20'0 0.0
2019-Feb-17 10:00N 69°59' E 023°20'0 0.0
2019-Feb-17 09:30N 69°59' E 023°20'0 0.0
2019-Feb-17 09:00N 69°59' E 023°20'0 0.0
2019-Feb-17 08:30N 69°59' E 023°20'0 0.0
2019-Feb-17 08:00N 69°59' E 023°20'0 0.0
2019-Feb-17 07:30N 69°59' E 023°20'0 0.0
2019-Feb-17 07:00N 69°59' E 023°20'0 0.0
2019-Feb-17 06:30N 69°59' E 023°20'0 0.0
2019-Feb-17 05:59N 69°59' E 023°20'0 0.0
2019-Feb-17 05:30N 69°59' E 023°20'0 0.0
2019-Feb-17 05:00N 69°59' E 023°20'0 0.0
2019-Feb-17 04:29N 69°59' E 023°20'0 0.0
2019-Feb-17 04:00N 69°59' E 023°20'0 0.0
2019-Feb-17 03:30N 69°59' E 023°20'0 0.0
2019-Feb-17 03:00N 69°59' E 023°20'0 0.0
2019-Feb-17 02:30N 69°59' E 023°20'0 0.0
2019-Feb-17 02:00N 69°59' E 023°20'0 0.0
2019-Feb-17 01:30N 69°59' E 023°20'0 0.0
2019-Feb-17 01:00N 69°59' E 023°20'0 0.0
2019-Feb-17 00:30N 69°59' E 023°20'0 0.0
2019-Feb-16 23:59N 69°59' E 023°20'0 0.0
2019-Feb-16 23:30N 69°59' E 023°20'0 0.0
2019-Feb-16 23:00N 69°59' E 023°20'0 0.0
2019-Feb-16 22:30N 69°59' E 023°20'0 0.0
2019-Feb-16 22:00N 69°59' E 023°20'0 0.0
2019-Feb-16 21:30N 69°59' E 023°20'0 0.0
2019-Feb-16 21:00N 69°59' E 023°20'0 0.0
2019-Feb-16 20:30N 69°59' E 023°20'0 0.0
2019-Feb-16 20:00N 69°59' E 023°20'0 0.0
2019-Feb-16 19:30N 69°59' E 023°20'0 0.0
2019-Feb-16 19:00N 69°59' E 023°20'0 0.0
2019-Feb-16 18:30N 69°59' E 023°20'0 0.0
2019-Feb-16 18:00N 69°59' E 023°20'0 0.0
2019-Feb-16 17:30N 69°59' E 023°20'0 0.0
2019-Feb-16 17:00N 69°59' E 023°20'0 0.0
2019-Feb-16 16:30N 69°59' E 023°20'0 0.0
2019-Feb-16 16:00N 69°59' E 023°20'0 0.0
2019-Feb-16 15:30N 69°59' E 023°20'0 0.0
2019-Feb-16 15:00N 69°59' E 023°20'0 0.0
2019-Feb-16 14:29N 69°59' E 023°20'0 0.0
2019-Feb-16 14:00N 69°59' E 023°20'0 0.0
2019-Feb-16 13:30N 69°59' E 023°20'0 0.0
2019-Feb-16 13:00N 69°59' E 023°20'0 0.0
2019-Feb-16 12:30N 69°59' E 023°20'0 0.0
2019-Feb-16 12:00N 69°59' E 023°20'3 5.2
2019-Feb-16 11:30N 70°01' E 023°17'612.0
2019-Feb-16 11:00N 70°06' E 023°06'816.0
2019-Feb-16 10:31N 70°13' E 022°57'816.0
2019-Feb-16 09:59N 70°15' E 022°33'815.7
2019-Feb-16 09:30N 70°20' E 022°15'816.2
2019-Feb-16 09:00N 70°27' E 022°01'816.5
2019-Feb-16 08:30N 70°34' E 021°48'816.0
2019-Feb-16 08:00N 70°41' E 021°37'612.3
2019-Feb-16 07:30N 70°46' E 021°29'5 9.9
2019-Feb-16 07:00N 70°50' E 021°20'3344.9
2019-Feb-16 07:00N 70°48' E 021°24'612.9 110 / 33978.8 2.2 -0.5-3.6 5.0
2019-Feb-16 06:30N 70°49' E 021°05'510.0
2019-Feb-16 06:00N 70°48' E 020°51'510.2
2019-Feb-16 05:30N 70°46' E 020°36'5 9.7
2019-Feb-16 05:00N 70°45' E 020°22'5 9.5
2019-Feb-16 04:30N 70°43' E 020°09'4 8.4
2019-Feb-16 04:00N 70°39' E 020°04'5 9.7
2019-Feb-16 03:30N 70°35' E 020°10'510.2
2019-Feb-16 03:00N 70°30' E 020°14'510.2
2019-Feb-16 02:30N 70°25' E 020°18'5 9.8
2019-Feb-16 02:00N 70°20' E 020°21'612.1
2019-Feb-16 01:30N 70°14' E 020°23'715.0
2019-Feb-16 01:00N 70°07' E 020°14'816.1
2019-Feb-16 00:30N 70°00' E 020°03'816.8
2019-Feb-16 00:00N 69°53' E 019°50'816.0
2019-Feb-15 23:31N 69°49' E 019°30'816.3
2019-Feb-15 23:00N 69°46' E 019°08'612.4
2019-Feb-15 22:30N 69°41' E 018°60'0 0.2
2019-Feb-15 22:00N 69°41' E 018°60'0 0.0
2019-Feb-15 21:30N 69°41' E 018°60'0 0.0
2019-Feb-15 21:00N 69°41' E 018°60'0 0.0
2019-Feb-15 20:30N 69°41' E 018°60'0 0.0
2019-Feb-15 20:00N 69°41' E 018°60'0 0.0
2019-Feb-15 19:30N 69°41' E 018°60'0 0.0
2019-Feb-15 19:00N 69°41' E 018°60'0 0.0
2019-Feb-15 18:30N 69°41' E 018°60'0 0.0
2019-Feb-15 18:00N 69°41' E 018°60'0 0.0
2019-Feb-15 17:30N 69°41' E 018°60'0 0.0
2019-Feb-15 17:00N 69°41' E 018°60'0 0.0
2019-Feb-15 16:30N 69°41' E 018°60'0 0.0
2019-Feb-15 16:00N 69°41' E 018°60'0 0.0
2019-Feb-15 15:30N 69°41' E 018°60'0 0.0
2019-Feb-15 15:00N 69°41' E 018°60'0 0.0
2019-Feb-15 14:30N 69°41' E 018°60'0 0.0
2019-Feb-15 14:00N 69°41' E 018°60'0 0.0
2019-Feb-15 13:30N 69°41' E 018°60'0 0.0
2019-Feb-15 13:00N 69°41' E 018°60'0 0.0
2019-Feb-15 12:31N 69°41' E 018°60'0 0.0
2019-Feb-15 12:01N 69°41' E 018°60'0 0.0
2019-Feb-15 11:30N 69°41' E 018°60'0 0.0
2019-Feb-15 11:00N 69°41' E 018°60'0 0.0
2019-Feb-15 10:31N 69°41' E 018°60'0 0.0
2019-Feb-15 10:00N 69°41' E 018°60'0 0.0
2019-Feb-15 09:30N 69°41' E 018°60'0 0.0
2019-Feb-15 09:00N 69°41' E 018°60'0 0.0
2019-Feb-15 08:30N 69°41' E 018°60'0 0.0
2019-Feb-15 08:00N 69°41' E 018°60'0 0.0
2019-Feb-15 07:30N 69°41' E 018°60'0 0.0
2019-Feb-15 07:00N 69°41' E 018°60'0 0.3
2019-Feb-15 06:30N 69°41' E 018°59'1 3.0
2019-Feb-15 06:00N 69°42' E 019°02'611.4
2019-Feb-15 05:30N 69°47' E 019°03'611.4
2019-Feb-15 05:00N 69°52' E 018°52'510.8
2019-Feb-15 04:30N 69°54' E 018°38'611.3
2019-Feb-15 04:00N 69°49' E 018°35'816.0
2019-Feb-15 03:30N 69°46' E 018°13'815.2
2019-Feb-15 03:00N 69°44' E 017°51'713.8
2019-Feb-15 02:30N 69°37' E 017°51'1 3.0
2019-Feb-15 02:00N 69°38' E 017°48'611.6
2019-Feb-15 01:30N 69°43' E 017°36'612.6
2019-Feb-15 01:00N 69°45' E 017°19'816.1
2019-Feb-15 00:30N 69°46' E 016°56'916.8
2019-Feb-14 23:59N 69°42' E 016°33'817.1
2019-Feb-14 23:30N 69°38' E 016°12'816.4
2019-Feb-14 23:00N 69°34' E 015°52'815.6
2019-Feb-14 22:30N 69°30' E 015°32'816.1
2019-Feb-14 22:00N 69°26' E 015°14'816.5
2019-Feb-14 21:30N 69°21' E 014°55'918.0
2019-Feb-14 21:00N 69°15' E 014°35'918.5
2019-Feb-14 20:30N 69°08' E 014°17'918.5
2019-Feb-14 20:00N 69°01' E 014°02'1019.3
2019-Feb-14 19:30N 68°53' E 013°45'1019.6
2019-Feb-14 18:59N 68°45' E 013°29'918.4
2019-Feb-14 18:30N 68°38' E 013°15'918.4
2019-Feb-14 18:00N 68°31' E 012°59'917.2
2019-Feb-14 17:30N 68°24' E 012°45'918.5
2019-Feb-14 17:00N 68°16' E 012°30'917.7
2019-Feb-14 16:30N 68°09' E 012°16'917.4
2019-Feb-14 16:00N 68°02' E 012°02'917.6
2019-Feb-14 15:30N 67°55' E 011°48'917.2
2019-Feb-14 14:58N 67°48' E 011°33'815.9
2019-Feb-14 14:30N 67°42' E 011°22'815.8
2019-Feb-14 14:00N 67°35' E 011°10'815.4
2019-Feb-14 13:30N 67°28' E 011°02'715.2
2019-Feb-14 13:00N 67°21' E 010°56'816.2
2019-Feb-14 12:30N 67°13' E 010°50'815.8
2019-Feb-14 12:00N 67°06' E 010°42'815.9
2019-Feb-14 11:30N 66°59' E 010°34'815.9
2019-Feb-14 10:59N 66°51' E 010°27'816.4
2019-Feb-14 10:30N 66°44' E 010°20'816.5
2019-Feb-14 10:00N 66°36' E 010°13'816.4
2019-Feb-14 09:30N 66°28' E 010°05'816.7
2019-Feb-14 09:00N 66°20' E 009°58'816.4
2019-Feb-14 08:30N 66°13' E 009°51'2617.4
2019-Feb-14 07:00N 65°48' E 009°30'1916.5 250 / 55995.6 5.4 8.5 2.6 7.0
2019-Feb-14 05:52N 65°31' E 009°13'718.0
2019-Feb-14 05:30N 65°25' E 009°08'917.9
2019-Feb-14 05:00N 65°16' E 008°60'918.1
2019-Feb-14 04:30N 65°08' E 008°53'917.7
2019-Feb-14 03:59N 64°59' E 008°45'1717.8
2019-Feb-14 03:00N 64°43' E 008°30'917.7
2019-Feb-14 02:30N 64°34' E 008°23'917.6
2019-Feb-14 02:00N 64°26' E 008°17'917.7
2019-Feb-14 01:30N 64°18' E 008°09'917.7
2019-Feb-14 01:00N 64°10' E 008°02'918.0
2019-Feb-14 00:30N 64°01' E 007°54'918.0
2019-Feb-14 00:00N 63°53' E 007°47'918.2
2019-Feb-13 23:30N 63°44' E 007°40'918.1
2019-Feb-13 23:00N 63°36' E 007°34'918.2
2019-Feb-13 22:31N 63°27' E 007°30'917.3
2019-Feb-13 22:01N 63°19' E 007°35'611.5
2019-Feb-13 21:30N 63°13' E 007°41'612.1
2019-Feb-13 21:00N 63°14' E 007°27'816.5
2019-Feb-13 20:30N 63°11' E 007°10'815.9
2019-Feb-13 20:00N 63°06' E 006°57'815.5
2019-Feb-13 19:30N 62°59' E 006°50'714.7
2019-Feb-13 19:00N 62°52' E 006°57'915.1
2019-Feb-13 18:23N 62°43' E 006°59'616.3
2019-Feb-13 18:00N 62°39' E 007°10'816.0
2019-Feb-13 17:30N 62°35' E 007°25'714.2
2019-Feb-13 17:00N 62°34' E 007°40'1 1.6
2019-Feb-13 16:31N 62°34' E 007°42'0 0.0
2019-Feb-13 16:00N 62°34' E 007°42'0 0.0
2019-Feb-13 15:30N 62°34' E 007°42'0 0.0
2019-Feb-13 15:00N 62°34' E 007°42'0 0.0
2019-Feb-13 14:30N 62°34' E 007°42'0 0.0
2019-Feb-13 14:00N 62°34' E 007°42'0 0.0
2019-Feb-13 13:29N 62°34' E 007°42'0 0.0
2019-Feb-13 13:00N 62°34' E 007°42'0 0.0
2019-Feb-13 12:30N 62°34' E 007°42'0 0.0
2019-Feb-13 12:00N 62°34' E 007°42'0 0.0
2019-Feb-13 11:29N 62°34' E 007°42'0 0.0
2019-Feb-13 11:00N 62°34' E 007°42'0 0.0
2019-Feb-13 10:31N 62°34' E 007°42'0 0.0
2019-Feb-13 10:00N 62°34' E 007°42'0 0.0
2019-Feb-13 09:30N 62°34' E 007°42'0 0.0
2019-Feb-13 09:00N 62°34' E 007°42'0 0.0
2019-Feb-13 08:30N 62°34' E 007°42'  
Track history (hours):
 
Tides and Currents Weather Stations Pressure Air Temp Water Temp Dewpoint Dewpoint Depression Visibility Wind Speed Wind Dir Waves Ship Positions

Oriana (Bermuda)

Last reported at 2019-Feb-23 08:07 UTC. Time now 2019-Feb-23 23:54 UTC.
Position N 49°05' W 006°48'.

Length 261 m; beam 32.2 m; draft 8.2 m.

Type: Ship. MMSI: 310529000.

Date/timePositionNaut miles runAvg speedWind from/ knotsBaromVisibWave heightAir tempDewpointWater temp
2019-Feb-23 08:07N 49°05' W 006°48'518.7
2019-Feb-23 07:50N 49°07' W 006°41'718.4
2019-Feb-23 07:28N 49°10' W 006°31'918.8
2019-Feb-23 07:00N 49°12' W 006°18'366.4 170 / 331025.510.8 12.0 9.410.0
2019-Feb-23 06:57N 49°15' W 006°19'818.4
2019-Feb-23 06:30N 49°18' W 006°07'2418.4
2019-Feb-23 05:13N 49°28' W 005°34'418.7
2019-Feb-23 05:00N 49°30' W 005°30'1519.5
2019-Feb-23 04:16N 49°36' W 005°09'520.1
2019-Feb-23 04:00N 49°38' W 005°02'1020.5
2019-Feb-23 03:30N 49°41' W 004°46'1321.3
2019-Feb-23 02:54N 49°44' W 004°27'922.0
2019-Feb-23 02:30N 49°47' W 004°14'1122.2
2019-Feb-23 02:00N 49°50' W 003°58'1122.2
2019-Feb-23 01:30N 49°52' W 003°41'1121.8
2019-Feb-23 01:00N 49°56' W 003°25'1121.1
2019-Feb-23 00:30N 49°58' W 003°09'1020.3
2019-Feb-23 00:00N 50°01' W 002°54'1019.0
2019-Feb-22 23:30N 50°04' W 002°40'918.0
2019-Feb-22 23:00N 50°06' W 002°26'816.9
2019-Feb-22 22:30N 50°09' W 002°14'816.1
2019-Feb-22 22:00N 50°13' W 002°03'816.2
2019-Feb-22 21:30N 50°16' W 001°51'816.5
2019-Feb-22 21:00N 50°19' W 001°39'917.4
2019-Feb-22 20:30N 50°22' W 001°27'918.5
2019-Feb-22 20:00N 50°27' W 001°14'4242.6
2019-Feb-22 20:00N 50°24' W 001°18'1327.8 100 / 121039.1 6.0 6.0 8.0
2019-Feb-22 19:30N 50°33' W 001°02'918.5
2019-Feb-22 19:00N 50°42' W 000°58'714.7
2019-Feb-22 18:30N 50°46' W 001°08'713.8
2019-Feb-22 18:00N 50°48' W 001°18'5 9.8
2019-Feb-22 17:30N 50°52' W 001°22'3 6.5
2019-Feb-22 17:00N 50°54' W 001°26'0 0.0
2019-Feb-22 16:29N 50°54' W 001°26'0 0.0
2019-Feb-22 15:58N 50°54' W 001°26'0 0.0
2019-Feb-22 15:28N 50°54' W 001°26'0 0.0
2019-Feb-22 15:01N 50°54' W 001°26'0 0.0
2019-Feb-22 14:31N 50°54' W 001°26'0 0.0
2019-Feb-22 13:58N 50°54' W 001°26'0 0.0
2019-Feb-22 13:28N 50°54' W 001°26'0 0.0
2019-Feb-22 12:55N 50°54' W 001°26'0 0.0
2019-Feb-22 12:31N 50°54' W 001°26'0 0.0
2019-Feb-22 11:58N 50°54' W 001°26'0 0.0
2019-Feb-22 11:31N 50°54' W 001°26'0 0.0
2019-Feb-22 11:01N 50°54' W 001°26'0 0.0
2019-Feb-22 10:27N 50°54' W 001°26'0 0.0
2019-Feb-22 10:01N 50°54' W 001°26'0 0.0
2019-Feb-22 09:28N 50°54' W 001°26'0 0.0
2019-Feb-22 08:57N 50°54' W 001°26'0 0.0
2019-Feb-22 08:25N 50°54' W 001°26'0 0.0
2019-Feb-22 07:58N 50°54' W 001°26'0 0.0
2019-Feb-22 07:28N 50°54' W 001°26'0 0.0
2019-Feb-22 06:59N 50°54' W 001°26'0 0.3
2019-Feb-22 06:30N 50°54' W 001°26'1 1.1
2019-Feb-22 06:00N 50°54' W 001°25'4 8.4
2019-Feb-22 05:31N 50°51' W 001°20'4 8.4
2019-Feb-22 05:01N 50°47' W 001°19'714.5
2019-Feb-22 04:30N 50°45' W 001°08'815.1
2019-Feb-22 04:00N 50°42' W 000°58'510.9
2019-Feb-22 03:31N 50°38' W 000°51'612.6
2019-Feb-22 03:00N 50°37' W 000°41'612.7
2019-Feb-22 02:31N 50°35' W 000°32'816.6
2019-Feb-22 02:00N 50°33' W 000°19'816.8
2019-Feb-22 01:30N 50°32' W 000°06'916.2
2019-Feb-22 00:58N 50°34' E 000°08'715.6
2019-Feb-22 00:30N 50°36' E 000°19'715.1
2019-Feb-22 00:00N 50°38' E 000°30'714.7
2019-Feb-21 23:30N 50°40' E 000°41'714.8
2019-Feb-21 23:00N 50°45' E 000°51'815.3
2019-Feb-21 22:30N 50°49' E 001°01'816.5
2019-Feb-21 22:00N 50°53' E 001°12'918.2
2019-Feb-21 21:30N 50°59' E 001°23'1019.7
2019-Feb-21 21:00N 51°06' E 001°34'1019.3
2019-Feb-21 20:30N 51°13' E 001°44'1019.8
2019-Feb-21 20:00N 51°22' E 001°50'918.3
2019-Feb-21 19:30N 51°30' E 001°58'917.5
2019-Feb-21 19:00N 51°37' E 002°07'917.1
2019-Feb-21 18:30N 51°43' E 002°16'816.6
2019-Feb-21 18:00N 51°50' E 002°24'714.7
2019-Feb-21 17:30N 51°54' E 002°33'815.6
2019-Feb-21 17:00N 52°02' E 002°37'815.6
2019-Feb-21 16:30N 52°10' E 002°38'815.4
2019-Feb-21 15:57N 52°18' E 002°41'815.4
2019-Feb-21 15:26N 52°26' E 002°41'815.7
2019-Feb-21 14:55N 52°34' E 002°40'716.0
2019-Feb-21 14:30N 52°41' E 002°39'816.4
2019-Feb-21 14:00N 52°49' E 002°39'1616.9
2019-Feb-21 13:02N 53°05' E 002°38'117.6
2019-Feb-21 12:58N 53°06' E 002°39'1217.7
2019-Feb-21 12:16N 53°18' E 002°46'24618.4
2019-Feb-20 22:52N 57°17' E 004°32'818.4
2019-Feb-20 22:26N 57°25' E 004°35'818.3
2019-Feb-20 22:00N 57°32' E 004°39'918.3
2019-Feb-20 21:30N 57°41' E 004°43'918.4
2019-Feb-20 20:59N 57°50' E 004°47'918.3
2019-Feb-20 20:30N 57°59' E 004°50'918.2
2019-Feb-20 20:00N 58°08' E 004°53'918.0
2019-Feb-20 19:30N 58°17' E 004°57'917.9
2019-Feb-20 19:00N 58°25' E 005°01'918.5
2019-Feb-20 18:30N 58°34' E 005°07'918.2
2019-Feb-20 18:00N 58°42' E 005°15'917.0
2019-Feb-20 17:30N 58°49' E 005°24'713.9
2019-Feb-20 17:00N 58°55' E 005°32'815.3
2019-Feb-20 16:30N 59°02' E 005°33'611.8
2019-Feb-20 15:59N 58°59' E 005°43'1 1.5
2019-Feb-20 15:30N 58°59' E 005°44'0 0.0
2019-Feb-20 14:57N 58°59' E 005°44'0 0.0
2019-Feb-20 14:30N 58°59' E 005°44'0 0.0
2019-Feb-20 14:00N 58°59' E 005°44'0 0.0
2019-Feb-20 13:30N 58°59' E 005°44'0 0.0
2019-Feb-20 13:00N 58°59' E 005°44'0 0.0
2019-Feb-20 12:30N 58°59' E 005°44'0 0.0
2019-Feb-20 12:00N 58°59' E 005°44'0 0.0
2019-Feb-20 11:30N 58°59' E 005°44'0 0.0
2019-Feb-20 11:00N 58°59' E 005°44'0 0.0
2019-Feb-20 10:30N 58°59' E 005°44'0 0.0
2019-Feb-20 10:00N 58°59' E 005°44'0 0.0
2019-Feb-20 09:30N 58°59' E 005°44'0 0.0
2019-Feb-20 09:00N 58°59' E 005°44'0 0.0
2019-Feb-20 08:30N 58°59' E 005°44'0 0.0
2019-Feb-20 08:00N 58°59' E 005°44'0 0.0
2019-Feb-20 07:30N 58°59' E 005°44'0 0.9
2019-Feb-20 07:00N 58°59' E 005°43'510.1
2019-Feb-20 06:30N 59°02' E 005°36'713.5
2019-Feb-20 06:01N 59°06' E 005°26'815.3
2019-Feb-20 05:31N 59°02' E 005°13'816.3
2019-Feb-20 05:00N 59°07' E 005°01'917.7
2019-Feb-20 04:30N 59°14' E 004°50'917.3
2019-Feb-20 04:00N 59°22' E 004°43'1817.4
2019-Feb-20 03:00N 59°39' E 004°34'917.3
2019-Feb-20 02:30N 59°48' E 004°32'919.0
2019-Feb-20 02:00N 59°57' E 004°29'1019.3
2019-Feb-20 01:30N 60°07' E 004°27'919.3
2019-Feb-20 01:00N 60°16' E 004°26'1019.2
2019-Feb-20 00:30N 60°26' E 004°24'918.7
2019-Feb-20 00:00N 60°35' E 004°22'918.8
2019-Feb-19 23:30N 60°44' E 004°21'918.6
2019-Feb-19 23:00N 60°54' E 004°17'918.4
2019-Feb-19 22:30N 61°03' E 004°16'918.5
2019-Feb-19 22:00N 61°12' E 004°16'917.7
2019-Feb-19 21:29N 61°21' E 004°18'816.6
2019-Feb-19 21:00N 61°29' E 004°19'817.0
2019-Feb-19 20:30N 61°37' E 004°20'816.8
2019-Feb-19 20:00N 61°46' E 004°23'917.1
2019-Feb-19 19:30N 61°54' E 004°28'817.0
2019-Feb-19 19:00N 62°02' E 004°33'916.9
2019-Feb-19 18:30N 62°10' E 004°42'917.3
2019-Feb-19 18:00N 62°17' E 004°50'917.9
2019-Feb-19 17:30N 62°25' E 004°58'917.9
2019-Feb-19 17:00N 62°34' E 005°02'917.9
2019-Feb-19 16:30N 62°41' E 005°16'918.5
2019-Feb-19 16:00N 62°49' E 005°25'918.4
2019-Feb-19 15:30N 62°57' E 005°33'918.0
2019-Feb-19 15:00N 63°05' E 005°42'917.9
2019-Feb-19 14:29N 63°14' E 005°50'918.0
2019-Feb-19 14:00N 63°22' E 005°58'918.4
2019-Feb-19 13:30N 63°30' E 006°07'918.4
2019-Feb-19 13:00N 63°38' E 006°16'918.1
2019-Feb-19 12:30N 63°46' E 006°24'918.4
2019-Feb-19 12:00N 63°55' E 006°33'1019.4
2019-Feb-19 11:30N 64°04' E 006°43'1019.4
2019-Feb-19 11:00N 64°12' E 006°53'1019.2
2019-Feb-19 10:30N 64°21' E 007°03'1019.2
2019-Feb-19 10:00N 64°30' E 007°13'919.2
2019-Feb-19 09:30N 64°38' E 007°23'1019.0
2019-Feb-19 09:00N 64°46' E 007°34'1018.8
2019-Feb-19 08:29N 64°55' E 007°44'2518.5
2019-Feb-19 07:08N 65°17' E 008°11'1118.3
2019-Feb-19 06:33N 65°27' E 008°23'4718.3
2019-Feb-19 03:58N 66°08' E 009°16'918.2
2019-Feb-19 03:30N 66°16' E 009°26'918.1
2019-Feb-19 03:00N 66°24' E 009°36'918.3
2019-Feb-19 02:30N 66°32' E 009°47'918.6
2019-Feb-19 02:00N 66°40' E 009°58'1018.5
2019-Feb-19 01:29N 66°49' E 010°08'918.8
2019-Feb-19 01:00N 66°57' E 010°19'918.2
2019-Feb-19 00:30N 67°05' E 010°30'918.6
2019-Feb-19 00:00N 67°13' E 010°41'918.6
2019-Feb-18 23:30N 67°22' E 010°52'1018.7
2019-Feb-18 23:00N 67°30' E 011°03'918.6
2019-Feb-18 22:30N 67°38' E 011°16'918.5
2019-Feb-18 22:00N 67°45' E 011°31'918.9
2019-Feb-18 21:30N 67°53' E 011°45'919.3
2019-Feb-18 21:00N 68°01' E 012°00'1018.9
2019-Feb-18 20:30N 68°08' E 012°15'916.9
2019-Feb-18 20:00N 68°15' E 012°29'816.7
2019-Feb-18 19:30N 68°22' E 012°43'917.0
2019-Feb-18 19:00N 68°28' E 012°57'816.4
2019-Feb-18 18:30N 68°35' E 013°11'817.0
2019-Feb-18 18:00N 68°42' E 013°25'817.0
2019-Feb-18 17:30N 68°48' E 013°39'917.2
2019-Feb-18 17:00N 68°55' E 013°53'917.7
2019-Feb-18 16:30N 69°02' E 014°08'917.7
2019-Feb-18 16:00N 69°09' E 014°23'817.5
2019-Feb-18 15:31N 69°16' E 014°39'917.6
2019-Feb-18 15:00N 69°22' E 014°59'917.9
2019-Feb-18 14:30N 69°28' E 015°17'918.1
2019-Feb-18 14:00N 69°33' E 015°38'817.4
2019-Feb-18 13:30N 69°39' E 015°56'918.4
2019-Feb-18 13:00N 69°45' E 016°16'917.4
2019-Feb-18 12:30N 69°51' E 016°35'918.1
2019-Feb-18 12:00N 69°56' E 016°56'918.4
2019-Feb-18 11:30N 70°02' E 017°17'918.8
2019-Feb-18 11:00N 70°09' E 017°36'918.9
2019-Feb-18 10:30N 70°14' E 017°58'918.8
2019-Feb-18 10:00N 70°17' E 018°25'917.8
2019-Feb-18 09:30N 70°20' E 018°50'917.7
2019-Feb-18 09:00N 70°23' E 019°15'7434.5
2019-Feb-18 09:00N 70°18' E 019°00'1631.9 080 / 271001.410.8 -0.2-0.2 4.0
2019-Feb-18 08:30N 70°25' E 019°41'918.3
2019-Feb-18 08:00N 70°28' E 020°07'815.6
2019-Feb-18 07:30N 70°22' E 020°21'1018.9
2019-Feb-18 07:00N 70°12' E 020°20'713.3
2019-Feb-18 06:30N 70°06' E 020°13'714.3
2019-Feb-18 06:00N 70°12' E 020°23'815.5
2019-Feb-18 05:30N 70°17' E 020°42'815.5
2019-Feb-18 05:00N 70°21' E 021°02'815.7
2019-Feb-18 04:30N 70°25' E 021°23'816.5
2019-Feb-18 04:00N 70°24' E 021°47'816.9
2019-Feb-18 03:30N 70°20' E 022°09'917.0
2019-Feb-18 03:00N 70°15' E 022°31'816.9
2019-Feb-18 02:30N 70°13' E 022°55'815.5
2019-Feb-18 02:00N 70°06' E 023°03'816.7
2019-Feb-18 01:30N 69°60' E 023°19'1 2.1
2019-Feb-18 01:00N 69°59' E 023°20'0 0.0
2019-Feb-18 00:30N 69°59' E 023°20'0 0.0
2019-Feb-18 00:00N 69°59' E 023°20'0 0.0
2019-Feb-17 23:30N 69°59' E 023°20'0 0.0
2019-Feb-17 23:00N 69°59' E 023°20'0 0.0
2019-Feb-17 22:30N 69°59' E 023°20'0 0.0
2019-Feb-17 22:00N 69°59' E 023°20'0 0.0
2019-Feb-17 21:30N 69°59' E 023°20'0 0.0
2019-Feb-17 21:00N 69°59' E 023°20'0 0.0
2019-Feb-17 20:30N 69°59' E 023°20'0 0.0
2019-Feb-17 20:00N 69°59' E 023°20'0 0.0
2019-Feb-17 19:30N 69°59' E 023°20'0 0.0
2019-Feb-17 19:00N 69°59' E 023°20'0 0.0
2019-Feb-17 18:30N 69°59' E 023°20'0 0.0
2019-Feb-17 18:00N 69°59' E 023°20'0 0.0
2019-Feb-17 17:30N 69°59' E 023°20'0 0.0
2019-Feb-17 17:00N 69°59' E 023°20'0 0.0
2019-Feb-17 16:30N 69°59' E 023°20'0 0.0
2019-Feb-17 16:00N 69°59' E 023°20'0 0.0
2019-Feb-17 15:30N 69°59' E 023°20'0 0.0
2019-Feb-17 15:00N 69°59' E 023°20'0 0.0
2019-Feb-17 14:30N 69°59' E 023°20'0 0.0
2019-Feb-17 14:00N 69°59' E 023°20'0 0.0
2019-Feb-17 13:30N 69°59' E 023°20'0 0.0
2019-Feb-17 13:00N 69°59' E 023°20'0 0.0
2019-Feb-17 12:30N 69°59' E 023°20'0 0.0
2019-Feb-17 12:00N 69°59' E 023°20'0 0.0
2019-Feb-17 11:30N 69°59' E 023°20'0 0.0
2019-Feb-17 11:00N 69°59' E 023°20'0 0.0
2019-Feb-17 10:30N 69°59' E 023°20'0 0.0
2019-Feb-17 10:00N 69°59' E 023°20'0 0.0
2019-Feb-17 09:30N 69°59' E 023°20'0 0.0
2019-Feb-17 09:00N 69°59' E 023°20'0 0.0
2019-Feb-17 08:30N 69°59' E 023°20'0 0.0
2019-Feb-17 08:00N 69°59' E 023°20'0 0.0
2019-Feb-17 07:30N 69°59' E 023°20'0 0.0
2019-Feb-17 07:00N 69°59' E 023°20'0 0.0
2019-Feb-17 06:30N 69°59' E 023°20'0 0.0
2019-Feb-17 05:59N 69°59' E 023°20'0 0.0
2019-Feb-17 05:30N 69°59' E 023°20'0 0.0
2019-Feb-17 05:00N 69°59' E 023°20'0 0.0
2019-Feb-17 04:29N 69°59' E 023°20'0 0.0
2019-Feb-17 04:00N 69°59' E 023°20'0 0.0
2019-Feb-17 03:30N 69°59' E 023°20'0 0.0
2019-Feb-17 03:00N 69°59' E 023°20'0 0.0
2019-Feb-17 02:30N 69°59' E 023°20'0 0.0
2019-Feb-17 02:00N 69°59' E 023°20'0 0.0
2019-Feb-17 01:30N 69°59' E 023°20'0 0.0
2019-Feb-17 01:00N 69°59' E 023°20'0 0.0
2019-Feb-17 00:30N 69°59' E 023°20'0 0.0
2019-Feb-16 23:59N 69°59' E 023°20'0 0.0
2019-Feb-16 23:30N 69°59' E 023°20'0 0.0
2019-Feb-16 23:00N 69°59' E 023°20'0 0.0
2019-Feb-16 22:30N 69°59' E 023°20'0 0.0
2019-Feb-16 22:00N 69°59' E 023°20'0 0.0
2019-Feb-16 21:30N 69°59' E 023°20'0 0.0
2019-Feb-16 21:00N 69°59' E 023°20'0 0.0
2019-Feb-16 20:30N 69°59' E 023°20'0 0.0
2019-Feb-16 20:00N 69°59' E 023°20'0 0.0
2019-Feb-16 19:30N 69°59' E 023°20'0 0.0
2019-Feb-16 19:00N 69°59' E 023°20'0 0.0
2019-Feb-16 18:30N 69°59' E 023°20'0 0.0
2019-Feb-16 18:00N 69°59' E 023°20'0 0.0
2019-Feb-16 17:30N 69°59' E 023°20'0 0.0
2019-Feb-16 17:00N 69°59' E 023°20'0 0.0
2019-Feb-16 16:30N 69°59' E 023°20'0 0.0
2019-Feb-16 16:00N 69°59' E 023°20'0 0.0
2019-Feb-16 15:30N 69°59' E 023°20'0 0.0
2019-Feb-16 15:00N 69°59' E 023°20'0 0.0
2019-Feb-16 14:29N 69°59' E 023°20'0 0.0
2019-Feb-16 14:00N 69°59' E 023°20'0 0.0
2019-Feb-16 13:30N 69°59' E 023°20'0 0.0
2019-Feb-16 13:00N 69°59' E 023°20'0 0.0
2019-Feb-16 12:30N 69°59' E 023°20'0 0.0
2019-Feb-16 12:00N 69°59' E 023°20'3 5.2
2019-Feb-16 11:30N 70°01' E 023°17'612.0
2019-Feb-16 11:00N 70°06' E 023°06'816.0
2019-Feb-16 10:31N 70°13' E 022°57'816.0
2019-Feb-16 09:59N 70°15' E 022°33'815.7
2019-Feb-16 09:30N 70°20' E 022°15'816.2
2019-Feb-16 09:00N 70°27' E 022°01'816.5
2019-Feb-16 08:30N 70°34' E 021°48'816.0
2019-Feb-16 08:00N 70°41' E 021°37'612.3
2019-Feb-16 07:30N 70°46' E 021°29'5 9.9
2019-Feb-16 07:00N 70°50' E 021°20'3344.9
2019-Feb-16 07:00N 70°48' E 021°24'612.9 110 / 33978.8 2.2 -0.5-3.6 5.0
2019-Feb-16 06:30N 70°49' E 021°05'510.0
2019-Feb-16 06:00N 70°48' E 020°51'510.2
2019-Feb-16 05:30N 70°46' E 020°36'5 9.7
2019-Feb-16 05:00N 70°45' E 020°22'5 9.5
2019-Feb-16 04:30N 70°43' E 020°09'4 8.4
2019-Feb-16 04:00N 70°39' E 020°04'5 9.7
2019-Feb-16 03:30N 70°35' E 020°10'510.2
2019-Feb-16 03:00N 70°30' E 020°14'510.2
2019-Feb-16 02:30N 70°25' E 020°18'5 9.8
2019-Feb-16 02:00N 70°20' E 020°21'612.1
2019-Feb-16 01:30N 70°14' E 020°23'715.0
2019-Feb-16 01:00N 70°07' E 020°14'816.1
2019-Feb-16 00:30N 70°00' E 020°03'816.8
2019-Feb-16 00:00N 69°53' E 019°50'816.0
2019-Feb-15 23:31N 69°49' E 019°30'816.3
2019-Feb-15 23:00N 69°46' E 019°08'612.4
2019-Feb-15 22:30N 69°41' E 018°60'0 0.2
2019-Feb-15 22:00N 69°41' E 018°60'0 0.0
2019-Feb-15 21:30N 69°41' E 018°60'0 0.0
2019-Feb-15 21:00N 69°41' E 018°60'0 0.0
2019-Feb-15 20:30N 69°41' E 018°60'0 0.0
2019-Feb-15 20:00N 69°41' E 018°60'0 0.0
2019-Feb-15 19:30N 69°41' E 018°60'0 0.0
2019-Feb-15 19:00N 69°41' E 018°60'0 0.0
2019-Feb-15 18:30N 69°41' E 018°60'0 0.0
2019-Feb-15 18:00N 69°41' E 018°60'0 0.0
2019-Feb-15 17:30N 69°41' E 018°60'0 0.0
2019-Feb-15 17:00N 69°41' E 018°60'0 0.0
2019-Feb-15 16:30N 69°41' E 018°60'0 0.0
2019-Feb-15 16:00N 69°41' E 018°60'0 0.0
2019-Feb-15 15:30N 69°41' E 018°60'0 0.0
2019-Feb-15 15:00N 69°41' E 018°60'0 0.0
2019-Feb-15 14:30N 69°41' E 018°60'0 0.0
2019-Feb-15 14:00N 69°41' E 018°60'0 0.0
2019-Feb-15 13:30N 69°41' E 018°60'0 0.0
2019-Feb-15 13:00N 69°41' E 018°60'0 0.0
2019-Feb-15 12:31N 69°41' E 018°60'0 0.0
2019-Feb-15 12:01N 69°41' E 018°60'0 0.0
2019-Feb-15 11:30N 69°41' E 018°60'0 0.0
2019-Feb-15 11:00N 69°41' E 018°60'0 0.0
2019-Feb-15 10:31N 69°41' E 018°60'0 0.0
2019-Feb-15 10:00N 69°41' E 018°60'0 0.0
2019-Feb-15 09:30N 69°41' E 018°60'0 0.0
2019-Feb-15 09:00N 69°41' E 018°60'0 0.0
2019-Feb-15 08:30N 69°41' E 018°60'0 0.0
2019-Feb-15 08:00N 69°41' E 018°60'0 0.0
2019-Feb-15 07:30N 69°41' E 018°60'0 0.0
2019-Feb-15 07:00N 69°41' E 018°60'0 0.3
2019-Feb-15 06:30N 69°41' E 018°59'1 3.0
2019-Feb-15 06:00N 69°42' E 019°02'611.4
2019-Feb-15 05:30N 69°47' E 019°03'611.4
2019-Feb-15 05:00N 69°52' E 018°52'510.8
2019-Feb-15 04:30N 69°54' E 018°38'611.3
2019-Feb-15 04:00N 69°49' E 018°35'816.0
2019-Feb-15 03:30N 69°46' E 018°13'815.2
2019-Feb-15 03:00N 69°44' E 017°51'713.8
2019-Feb-15 02:30N 69°37' E 017°51'1 3.0
2019-Feb-15 02:00N 69°38' E 017°48'611.6
2019-Feb-15 01:30N 69°43' E 017°36'612.6
2019-Feb-15 01:00N 69°45' E 017°19'816.1
2019-Feb-15 00:30N 69°46' E 016°56'916.8
2019-Feb-14 23:59N 69°42' E 016°33'817.1
2019-Feb-14 23:30N 69°38' E 016°12'816.4
2019-Feb-14 23:00N 69°34' E 015°52'815.6
2019-Feb-14 22:30N 69°30' E 015°32'816.1
2019-Feb-14 22:00N 69°26' E 015°14'816.5
2019-Feb-14 21:30N 69°21' E 014°55'918.0
2019-Feb-14 21:00N 69°15' E 014°35'918.5
2019-Feb-14 20:30N 69°08' E 014°17'918.5
2019-Feb-14 20:00N 69°01' E 014°02'1019.3
2019-Feb-14 19:30N 68°53' E 013°45'1019.6
2019-Feb-14 18:59N 68°45' E 013°29'918.4
2019-Feb-14 18:30N 68°38' E 013°15'918.4
2019-Feb-14 18:00N 68°31' E 012°59'917.2
2019-Feb-14 17:30N 68°24' E 012°45'918.5
2019-Feb-14 17:00N 68°16' E 012°30'917.7
2019-Feb-14 16:30N 68°09' E 012°16'917.4
2019-Feb-14 16:00N 68°02' E 012°02'917.6
2019-Feb-14 15:30N 67°55' E 011°48'917.2
2019-Feb-14 14:58N 67°48' E 011°33'815.9
2019-Feb-14 14:30N 67°42' E 011°22'815.8
2019-Feb-14 14:00N 67°35' E 011°10'815.4
2019-Feb-14 13:30N 67°28' E 011°02'715.2
2019-Feb-14 13:00N 67°21' E 010°56'816.2
2019-Feb-14 12:30N 67°13' E 010°50'815.8
2019-Feb-14 12:00N 67°06' E 010°42'815.9
2019-Feb-14 11:30N 66°59' E 010°34'815.9
2019-Feb-14 10:59N 66°51' E 010°27'816.4
2019-Feb-14 10:30N 66°44' E 010°20'816.5
2019-Feb-14 10:00N 66°36' E 010°13'816.4
2019-Feb-14 09:30N 66°28' E 010°05'816.7
2019-Feb-14 09:00N 66°20' E 009°58'816.4
2019-Feb-14 08:30N 66°13' E 009°51'2617.4
2019-Feb-14 07:00N 65°48' E 009°30'1916.5 250 / 55995.6 5.4 8.5 2.6 7.0
2019-Feb-14 05:52N 65°31' E 009°13'718.0
2019-Feb-14 05:30N 65°25' E 009°08'917.9
2019-Feb-14 05:00N 65°16' E 008°60'918.1
2019-Feb-14 04:30N 65°08' E 008°53'917.7
2019-Feb-14 03:59N 64°59' E 008°45'1717.8
2019-Feb-14 03:00N 64°43' E 008°30'917.7
2019-Feb-14 02:30N 64°34' E 008°23'917.6
2019-Feb-14 02:00N 64°26' E 008°17'917.7
2019-Feb-14 01:30N 64°18' E 008°09'917.7
2019-Feb-14 01:00N 64°10' E 008°02'918.0
2019-Feb-14 00:30N 64°01' E 007°54'918.0
2019-Feb-14 00:00N 63°53' E 007°47'918.2
2019-Feb-13 23:30N 63°44' E 007°40'918.1
2019-Feb-13 23:00N 63°36' E 007°34'918.2
2019-Feb-13 22:31N 63°27' E 007°30'917.3
2019-Feb-13 22:01N 63°19' E 007°35'611.5
2019-Feb-13 21:30N 63°13' E 007°41'612.1
2019-Feb-13 21:00N 63°14' E 007°27'816.5
2019-Feb-13 20:30N 63°11' E 007°10'815.9
2019-Feb-13 20:00N 63°06' E 006°57'815.5
2019-Feb-13 19:30N 62°59' E 006°50'714.7
2019-Feb-13 19:00N 62°52' E 006°57'915.1
2019-Feb-13 18:23N 62°43' E 006°59'616.3
2019-Feb-13 18:00N 62°39' E 007°10'816.0
2019-Feb-13 17:30N 62°35' E 007°25'714.2
2019-Feb-13 17:00N 62°34' E 007°40'1 1.6
2019-Feb-13 16:31N 62°34' E 007°42'0 0.0
2019-Feb-13 16:00N 62°34' E 007°42'0 0.0
2019-Feb-13 15:30N 62°34' E 007°42'0 0.0
2019-Feb-13 15:00N 62°34' E 007°42'0 0.0
2019-Feb-13 14:30N 62°34' E 007°42'0 0.0
2019-Feb-13 14:00N 62°34' E 007°42'0 0.0
2019-Feb-13 13:29N 62°34' E 007°42'0 0.0
2019-Feb-13 13:00N 62°34' E 007°42'0 0.0
2019-Feb-13 12:30N 62°34' E 007°42'0 0.0
2019-Feb-13 12:00N 62°34' E 007°42'0 0.0
2019-Feb-13 11:29N 62°34' E 007°42'0 0.0
2019-Feb-13 11:00N 62°34' E 007°42'0 0.0
2019-Feb-13 10:31N 62°34' E 007°42'0 0.0
2019-Feb-13 10:00N 62°34' E 007°42'0 0.0
2019-Feb-13 09:30N 62°34' E 007°42'0 0.0
2019-Feb-13 09:00N 62°34' E 007°42'0 0.0
2019-Feb-13 08:30N 62°34' E 007°42'  

Dump ship's entire track history